sensor_id;sensor_type;location;lat;lon;timestamp;P1;durP1;ratioP1;P2;durP2;ratioP2
30505;SDS011;17292;51.600;4.994;2023-04-24T00:01:55;2.30;;;2.20;;
30505;SDS011;17292;51.600;4.994;2023-04-24T00:04:21;2.58;;;2.28;;
30505;SDS011;17292;51.600;4.994;2023-04-24T00:06:50;2.40;;;2.20;;
30505;SDS011;17292;51.600;4.994;2023-04-24T00:09:19;2.45;;;2.25;;
30505;SDS011;17292;51.600;4.994;2023-04-24T00:11:45;2.17;;;2.05;;
30505;SDS011;17292;51.600;4.994;2023-04-24T00:14:11;2.50;;;2.40;;
30505;SDS011;17292;51.600;4.994;2023-04-24T00:16:37;2.08;;;1.98;;
30505;SDS011;17292;51.600;4.994;2023-04-24T00:19:03;2.30;;;2.20;;
30505;SDS011;17292;51.600;4.994;2023-04-24T00:21:31;2.60;;;2.40;;
30505;SDS011;17292;51.600;4.994;2023-04-24T00:23:57;2.45;;;2.35;;
30505;SDS011;17292;51.600;4.994;2023-04-24T00:26:24;2.50;;;2.30;;
30505;SDS011;17292;51.600;4.994;2023-04-24T00:28:50;2.00;;;1.90;;
30505;SDS011;17292;51.600;4.994;2023-04-24T00:31:16;2.50;;;2.30;;
30505;SDS011;17292;51.600;4.994;2023-04-24T00:33:42;2.42;;;2.00;;
30505;SDS011;17292;51.600;4.994;2023-04-24T00:36:08;2.22;;;2.03;;
30505;SDS011;17292;51.600;4.994;2023-04-24T00:38:34;2.47;;;2.28;;
30505;SDS011;17292;51.600;4.994;2023-04-24T00:41:01;2.20;;;2.03;;
30505;SDS011;17292;51.600;4.994;2023-04-24T00:43:27;2.33;;;2.20;;
30505;SDS011;17292;51.600;4.994;2023-04-24T00:45:53;2.20;;;2.10;;
30505;SDS011;17292;51.600;4.994;2023-04-24T00:48:20;2.30;;;2.20;;
30505;SDS011;17292;51.600;4.994;2023-04-24T00:50:46;2.25;;;2.15;;
30505;SDS011;17292;51.600;4.994;2023-04-24T00:53:12;2.40;;;2.30;;
30505;SDS011;17292;51.600;4.994;2023-04-24T00:55:38;2.45;;;2.25;;
30505;SDS011;17292;51.600;4.994;2023-04-24T00:58:05;2.28;;;2.15;;
30505;SDS011;17292;51.600;4.994;2023-04-24T01:00:31;2.45;;;2.25;;
30505;SDS011;17292;51.600;4.994;2023-04-24T01:02:57;2.60;;;2.40;;
30505;SDS011;17292;51.600;4.994;2023-04-24T01:05:25;2.58;;;2.38;;
30505;SDS011;17292;51.600;4.994;2023-04-24T01:07:51;2.35;;;2.25;;
30505;SDS011;17292;51.600;4.994;2023-04-24T01:10:17;2.42;;;2.33;;
30505;SDS011;17292;51.600;4.994;2023-04-24T01:12:45;2.30;;;2.20;;
30505;SDS011;17292;51.600;4.994;2023-04-24T01:15:12;2.28;;;2.17;;
30505;SDS011;17292;51.600;4.994;2023-04-24T01:17:38;2.40;;;2.20;;
30505;SDS011;17292;51.600;4.994;2023-04-24T01:20:05;2.20;;;2.10;;
30505;SDS011;17292;51.600;4.994;2023-04-24T01:22:32;2.30;;;2.20;;
30505;SDS011;17292;51.600;4.994;2023-04-24T01:24:59;3.63;;;2.08;;
30505;SDS011;17292;51.600;4.994;2023-04-24T01:27:25;2.20;;;2.10;;
30505;SDS011;17292;51.600;4.994;2023-04-24T01:29:51;2.10;;;2.00;;
30505;SDS011;17292;51.600;4.994;2023-04-24T01:32:18;1.92;;;1.83;;
30505;SDS011;17292;51.600;4.994;2023-04-24T01:34:45;2.42;;;2.33;;
30505;SDS011;17292;51.600;4.994;2023-04-24T01:37:11;2.78;;;2.38;;
30505;SDS011;17292;51.600;4.994;2023-04-24T01:39:37;2.17;;;2.08;;
30505;SDS011;17292;51.600;4.994;2023-04-24T01:42:04;2.10;;;2.00;;
30505;SDS011;17292;51.600;4.994;2023-04-24T01:44:30;2.20;;;2.10;;
30505;SDS011;17292;51.600;4.994;2023-04-24T01:46:56;2.00;;;1.90;;
30505;SDS011;17292;51.600;4.994;2023-04-24T01:49:22;2.28;;;2.15;;
30505;SDS011;17292;51.600;4.994;2023-04-24T01:51:49;2.47;;;2.30;;
30505;SDS011;17292;51.600;4.994;2023-04-24T01:54:15;2.55;;;2.40;;
30505;SDS011;17292;51.600;4.994;2023-04-24T01:56:41;2.15;;;2.05;;
30505;SDS011;17292;51.600;4.994;2023-04-24T01:59:09;2.17;;;2.08;;
30505;SDS011;17292;51.600;4.994;2023-04-24T02:01:36;2.17;;;2.08;;
30505;SDS011;17292;51.600;4.994;2023-04-24T02:04:03;2.15;;;2.05;;
30505;SDS011;17292;51.600;4.994;2023-04-24T02:06:29;2.25;;;2.15;;
30505;SDS011;17292;51.600;4.994;2023-04-24T02:08:57;2.20;;;2.10;;
30505;SDS011;17292;51.600;4.994;2023-04-24T02:11:23;2.13;;;2.03;;
30505;SDS011;17292;51.600;4.994;2023-04-24T02:13:49;2.50;;;2.30;;
30505;SDS011;17292;51.600;4.994;2023-04-24T02:16:16;2.15;;;2.05;;
30505;SDS011;17292;51.600;4.994;2023-04-24T02:18:42;2.25;;;2.15;;
30505;SDS011;17292;51.600;4.994;2023-04-24T02:21:09;1.92;;;1.83;;
30505;SDS011;17292;51.600;4.994;2023-04-24T02:23:35;2.70;;;2.35;;
30505;SDS011;17292;51.600;4.994;2023-04-24T02:26:01;2.05;;;1.95;;
30505;SDS011;17292;51.600;4.994;2023-04-24T02:28:27;2.45;;;2.25;;
30505;SDS011;17292;51.600;4.994;2023-04-24T02:30:53;2.10;;;2.00;;
30505;SDS011;17292;51.600;4.994;2023-04-24T02:33:20;2.05;;;1.95;;
30505;SDS011;17292;51.600;4.994;2023-04-24T02:35:46;2.20;;;2.10;;
30505;SDS011;17292;51.600;4.994;2023-04-24T02:38:12;2.25;;;2.15;;
30505;SDS011;17292;51.600;4.994;2023-04-24T02:40:38;2.03;;;1.92;;
30505;SDS011;17292;51.600;4.994;2023-04-24T02:43:04;2.20;;;2.10;;
30505;SDS011;17292;51.600;4.994;2023-04-24T02:45:30;2.53;;;2.38;;
30505;SDS011;17292;51.600;4.994;2023-04-24T02:47:56;2.30;;;2.10;;
30505;SDS011;17292;51.600;4.994;2023-04-24T02:50:22;2.30;;;2.10;;
30505;SDS011;17292;51.600;4.994;2023-04-24T02:52:48;2.28;;;2.17;;
30505;SDS011;17292;51.600;4.994;2023-04-24T02:55:14;2.50;;;2.30;;
30505;SDS011;17292;51.600;4.994;2023-04-24T02:57:40;2.40;;;2.30;;
30505;SDS011;17292;51.600;4.994;2023-04-24T03:00:07;2.03;;;1.92;;
30505;SDS011;17292;51.600;4.994;2023-04-24T03:02:34;2.20;;;2.05;;
30505;SDS011;17292;51.600;4.994;2023-04-24T03:05:00;2.17;;;1.98;;
30505;SDS011;17292;51.600;4.994;2023-04-24T03:07:27;2.28;;;2.15;;
30505;SDS011;17292;51.600;4.994;2023-04-24T03:09:53;2.35;;;2.15;;
30505;SDS011;17292;51.600;4.994;2023-04-24T03:12:19;1.65;;;1.55;;
30505;SDS011;17292;51.600;4.994;2023-04-24T03:14:48;2.42;;;2.22;;
30505;SDS011;17292;51.600;4.994;2023-04-24T03:17:14;2.20;;;2.10;;
30505;SDS011;17292;51.600;4.994;2023-04-24T03:19:40;1.75;;;1.65;;
30505;SDS011;17292;51.600;4.994;2023-04-24T03:22:07;2.30;;;2.20;;
30505;SDS011;17292;51.600;4.994;2023-04-24T03:24:34;2.13;;;2.03;;
30505;SDS011;17292;51.600;4.994;2023-04-24T03:27:00;2.60;;;2.40;;
30505;SDS011;17292;51.600;4.994;2023-04-24T03:29:26;2.58;;;2.38;;
30505;SDS011;17292;51.600;4.994;2023-04-24T03:31:52;2.10;;;2.00;;
30505;SDS011;17292;51.600;4.994;2023-04-24T03:34:18;2.10;;;2.00;;
30505;SDS011;17292;51.600;4.994;2023-04-24T03:36:44;2.22;;;1.98;;
30505;SDS011;17292;51.600;4.994;2023-04-24T03:39:12;2.42;;;2.25;;
30505;SDS011;17292;51.600;4.994;2023-04-24T03:41:39;2.30;;;2.10;;
30505;SDS011;17292;51.600;4.994;2023-04-24T03:44:05;1.98;;;1.88;;
30505;SDS011;17292;51.600;4.994;2023-04-24T03:46:31;2.28;;;2.10;;
30505;SDS011;17292;51.600;4.994;2023-04-24T03:48:57;2.05;;;1.95;;
30505;SDS011;17292;51.600;4.994;2023-04-24T03:51:23;2.63;;;2.42;;
30505;SDS011;17292;51.600;4.994;2023-04-24T03:53:49;2.65;;;2.45;;
30505;SDS011;17292;51.600;4.994;2023-04-24T03:56:15;2.30;;;2.15;;
30505;SDS011;17292;51.600;4.994;2023-04-24T03:58:42;2.47;;;2.28;;
30505;SDS011;17292;51.600;4.994;2023-04-24T04:01:08;2.22;;;2.13;;
30505;SDS011;17292;51.600;4.994;2023-04-24T04:03:34;2.13;;;1.92;;
30505;SDS011;17292;51.600;4.994;2023-04-24T04:06:00;2.38;;;2.28;;
30505;SDS011;17292;51.600;4.994;2023-04-24T04:08:26;2.30;;;2.20;;
30505;SDS011;17292;51.600;4.994;2023-04-24T04:10:52;2.50;;;2.30;;
30505;SDS011;17292;51.600;4.994;2023-04-24T04:13:18;2.10;;;2.00;;
30505;SDS011;17292;51.600;4.994;2023-04-24T04:15:44;2.10;;;2.00;;
30505;SDS011;17292;51.600;4.994;2023-04-24T04:18:11;2.00;;;1.90;;
30505;SDS011;17292;51.600;4.994;2023-04-24T04:20:37;2.17;;;2.05;;
30505;SDS011;17292;51.600;4.994;2023-04-24T04:23:04;2.60;;;2.40;;
30505;SDS011;17292;51.600;4.994;2023-04-24T04:25:30;2.70;;;2.50;;
30505;SDS011;17292;51.600;4.994;2023-04-24T04:27:57;2.25;;;2.05;;
30505;SDS011;17292;51.600;4.994;2023-04-24T04:30:24;2.38;;;2.28;;
30505;SDS011;17292;51.600;4.994;2023-04-24T04:32:51;3.45;;;2.45;;
30505;SDS011;17292;51.600;4.994;2023-04-24T04:35:17;2.17;;;2.08;;
30505;SDS011;17292;51.600;4.994;2023-04-24T04:37:43;2.05;;;1.95;;
30505;SDS011;17292;51.600;4.994;2023-04-24T04:40:09;2.30;;;2.20;;
30505;SDS011;17292;51.600;4.994;2023-04-24T04:42:36;2.25;;;2.15;;
30505;SDS011;17292;51.600;4.994;2023-04-24T04:45:08;2.83;;;2.63;;
30505;SDS011;17292;51.600;4.994;2023-04-24T04:47:36;4.22;;;2.70;;
30505;SDS011;17292;51.600;4.994;2023-04-24T04:50:02;2.35;;;2.25;;
30505;SDS011;17292;51.600;4.994;2023-04-24T04:52:29;8.02;;;2.40;;
30505;SDS011;17292;51.600;4.994;2023-04-24T04:54:55;2.33;;;2.13;;
30505;SDS011;17292;51.600;4.994;2023-04-24T04:57:21;2.28;;;2.17;;
30505;SDS011;17292;51.600;4.994;2023-04-24T04:59:47;2.50;;;2.30;;
30505;SDS011;17292;51.600;4.994;2023-04-24T05:02:13;2.83;;;1.95;;
30505;SDS011;17292;51.600;4.994;2023-04-24T05:04:39;2.38;;;2.17;;
30505;SDS011;17292;51.600;4.994;2023-04-24T05:07:06;3.67;;;2.45;;
30505;SDS011;17292;51.600;4.994;2023-04-24T05:09:32;5.90;;;2.10;;
30505;SDS011;17292;51.600;4.994;2023-04-24T05:11:58;2.30;;;2.10;;
30505;SDS011;17292;51.600;4.994;2023-04-24T05:14:25;6.90;;;2.28;;
30505;SDS011;17292;51.600;4.994;2023-04-24T05:16:51;4.30;;;2.10;;
30505;SDS011;17292;51.600;4.994;2023-04-24T05:19:17;4.95;;;2.10;;
30505;SDS011;17292;51.600;4.994;2023-04-24T05:21:43;4.35;;;2.40;;
30505;SDS011;17292;51.600;4.994;2023-04-24T05:24:10;3.60;;;2.20;;
30505;SDS011;17292;51.600;4.994;2023-04-24T05:26:36;4.22;;;2.13;;
30505;SDS011;17292;51.600;4.994;2023-04-24T05:29:03;7.35;;;2.15;;
30505;SDS011;17292;51.600;4.994;2023-04-24T05:31:29;8.80;;;2.25;;
30505;SDS011;17292;51.600;4.994;2023-04-24T05:33:55;11.82;;;2.95;;
30505;SDS011;17292;51.600;4.994;2023-04-24T05:36:22;12.70;;;3.17;;
30505;SDS011;17292;51.600;4.994;2023-04-24T05:38:48;16.02;;;2.92;;
30505;SDS011;17292;51.600;4.994;2023-04-24T05:41:14;20.85;;;3.33;;
30505;SDS011;17292;51.600;4.994;2023-04-24T05:43:40;17.88;;;3.10;;
30505;SDS011;17292;51.600;4.994;2023-04-24T05:46:06;13.48;;;3.38;;
30505;SDS011;17292;51.600;4.994;2023-04-24T05:48:32;14.40;;;3.28;;
30505;SDS011;17292;51.600;4.994;2023-04-24T05:50:59;18.83;;;3.47;;
30505;SDS011;17292;51.600;4.994;2023-04-24T05:53:25;9.88;;;2.47;;
30505;SDS011;17292;51.600;4.994;2023-04-24T05:55:51;33.83;;;4.85;;
30505;SDS011;17292;51.600;4.994;2023-04-24T05:58:18;20.15;;;3.92;;
30505;SDS011;17292;51.600;4.994;2023-04-24T06:00:44;17.30;;;3.33;;
30505;SDS011;17292;51.600;4.994;2023-04-24T06:03:11;13.10;;;3.40;;
30505;SDS011;17292;51.600;4.994;2023-04-24T06:05:38;9.13;;;2.88;;
30505;SDS011;17292;51.600;4.994;2023-04-24T06:08:04;6.57;;;2.72;;
30505;SDS011;17292;51.600;4.994;2023-04-24T06:10:31;11.90;;;3.05;;
30505;SDS011;17292;51.600;4.994;2023-04-24T06:12:57;14.45;;;2.95;;
30505;SDS011;17292;51.600;4.994;2023-04-24T06:15:26;9.85;;;2.97;;
30505;SDS011;17292;51.600;4.994;2023-04-24T06:17:53;14.07;;;3.45;;
30505;SDS011;17292;51.600;4.994;2023-04-24T06:20:19;14.32;;;3.35;;
30505;SDS011;17292;51.600;4.994;2023-04-24T06:22:45;15.02;;;3.13;;
30505;SDS011;17292;51.600;4.994;2023-04-24T06:25:11;19.63;;;3.28;;
30505;SDS011;17292;51.600;4.994;2023-04-24T06:27:37;10.32;;;3.42;;
30505;SDS011;17292;51.600;4.994;2023-04-24T06:30:04;10.00;;;3.08;;
30505;SDS011;17292;51.600;4.994;2023-04-24T06:32:30;13.88;;;2.97;;
30505;SDS011;17292;51.600;4.994;2023-04-24T06:34:56;12.27;;;3.35;;
30505;SDS011;17292;51.600;4.994;2023-04-24T06:37:22;21.13;;;3.55;;
30505;SDS011;17292;51.600;4.994;2023-04-24T06:39:48;18.45;;;3.00;;
30505;SDS011;17292;51.600;4.994;2023-04-24T06:42:15;9.95;;;3.00;;
30505;SDS011;17292;51.600;4.994;2023-04-24T06:44:41;12.02;;;3.30;;
30505;SDS011;17292;51.600;4.994;2023-04-24T06:47:08;14.32;;;3.08;;
30505;SDS011;17292;51.600;4.994;2023-04-24T06:49:37;15.15;;;3.30;;
30505;SDS011;17292;51.600;4.994;2023-04-24T06:52:04;12.07;;;3.13;;
30505;SDS011;17292;51.600;4.994;2023-04-24T06:54:30;18.85;;;3.20;;
30505;SDS011;17292;51.600;4.994;2023-04-24T06:56:56;11.23;;;2.30;;
30505;SDS011;17292;51.600;4.994;2023-04-24T06:59:23;12.30;;;2.75;;
30505;SDS011;17292;51.600;4.994;2023-04-24T07:01:50;14.63;;;2.88;;
30505;SDS011;17292;51.600;4.994;2023-04-24T07:04:16;5.88;;;2.85;;
30505;SDS011;17292;51.600;4.994;2023-04-24T07:06:43;11.50;;;2.80;;
30505;SDS011;17292;51.600;4.994;2023-04-24T07:09:11;8.18;;;2.70;;
30505;SDS011;17292;51.600;4.994;2023-04-24T07:11:38;11.05;;;3.35;;
30505;SDS011;17292;51.600;4.994;2023-04-24T07:14:06;12.73;;;2.60;;
30505;SDS011;17292;51.600;4.994;2023-04-24T07:16:32;11.50;;;3.00;;
30505;SDS011;17292;51.600;4.994;2023-04-24T07:18:58;11.55;;;2.90;;
30505;SDS011;17292;51.600;4.994;2023-04-24T07:21:25;10.88;;;2.92;;
30505;SDS011;17292;51.600;4.994;2023-04-24T07:23:52;11.60;;;3.53;;
30505;SDS011;17292;51.600;4.994;2023-04-24T07:26:19;17.05;;;3.17;;
30505;SDS011;17292;51.600;4.994;2023-04-24T07:28:45;16.10;;;3.20;;
30505;SDS011;17292;51.600;4.994;2023-04-24T07:31:12;13.05;;;3.30;;
30505;SDS011;17292;51.600;4.994;2023-04-24T07:33:38;16.75;;;3.38;;
30505;SDS011;17292;51.600;4.994;2023-04-24T07:36:04;25.83;;;4.72;;
30505;SDS011;17292;51.600;4.994;2023-04-24T07:38:30;7.82;;;3.25;;
30505;SDS011;17292;51.600;4.994;2023-04-24T07:40:57;16.17;;;3.85;;
30505;SDS011;17292;51.600;4.994;2023-04-24T07:43:23;11.32;;;3.47;;
30505;SDS011;17292;51.600;4.994;2023-04-24T07:45:52;15.02;;;3.58;;
30505;SDS011;17292;51.600;4.994;2023-04-24T07:48:19;8.70;;;3.25;;
30505;SDS011;17292;51.600;4.994;2023-04-24T07:50:47;20.48;;;4.80;;
30505;SDS011;17292;51.600;4.994;2023-04-24T07:53:13;18.02;;;4.00;;
30505;SDS011;17292;51.600;4.994;2023-04-24T07:55:39;19.40;;;4.00;;
30505;SDS011;17292;51.600;4.994;2023-04-24T07:58:05;12.63;;;3.63;;
30505;SDS011;17292;51.600;4.994;2023-04-24T08:00:31;14.75;;;3.38;;
30505;SDS011;17292;51.600;4.994;2023-04-24T08:02:58;12.82;;;3.75;;
30505;SDS011;17292;51.600;4.994;2023-04-24T08:05:24;15.63;;;3.60;;
30505;SDS011;17292;51.600;4.994;2023-04-24T08:07:52;10.63;;;3.63;;
30505;SDS011;17292;51.600;4.994;2023-04-24T08:10:18;17.05;;;3.70;;
30505;SDS011;17292;51.600;4.994;2023-04-24T08:12:45;14.73;;;3.53;;
30505;SDS011;17292;51.600;4.994;2023-04-24T08:15:11;15.57;;;4.10;;
30505;SDS011;17292;51.600;4.994;2023-04-24T08:17:37;26.38;;;4.65;;
30505;SDS011;17292;51.600;4.994;2023-04-24T08:20:03;24.20;;;4.18;;
30505;SDS011;17292;51.600;4.994;2023-04-24T08:22:30;16.58;;;3.70;;
30505;SDS011;17292;51.600;4.994;2023-04-24T08:25:06;14.55;;;3.50;;
30505;SDS011;17292;51.600;4.994;2023-04-24T08:27:32;13.20;;;3.65;;
30505;SDS011;17292;51.600;4.994;2023-04-24T08:29:58;11.57;;;3.30;;
30505;SDS011;17292;51.600;4.994;2023-04-24T08:32:25;14.63;;;3.85;;
30505;SDS011;17292;51.600;4.994;2023-04-24T08:34:57;14.98;;;3.20;;
30505;SDS011;17292;51.600;4.994;2023-04-24T08:37:25;20.58;;;3.58;;
30505;SDS011;17292;51.600;4.994;2023-04-24T08:39:51;16.65;;;3.97;;
30505;SDS011;17292;51.600;4.994;2023-04-24T08:42:17;37.35;;;5.38;;
30505;SDS011;17292;51.600;4.994;2023-04-24T08:44:44;19.40;;;4.47;;
30505;SDS011;17292;51.600;4.994;2023-04-24T08:47:11;30.38;;;5.40;;
30505;SDS011;17292;51.600;4.994;2023-04-24T08:49:38;23.55;;;4.78;;
30505;SDS011;17292;51.600;4.994;2023-04-24T08:52:05;22.98;;;4.22;;
30505;SDS011;17292;51.600;4.994;2023-04-24T08:54:33;17.48;;;3.80;;
30505;SDS011;17292;51.600;4.994;2023-04-24T08:56:59;20.48;;;4.10;;
30505;SDS011;17292;51.600;4.994;2023-04-24T08:59:26;17.83;;;3.72;;
30505;SDS011;17292;51.600;4.994;2023-04-24T09:01:52;15.10;;;3.60;;
30505;SDS011;17292;51.600;4.994;2023-04-24T09:04:18;23.67;;;3.97;;
30505;SDS011;17292;51.600;4.994;2023-04-24T09:06:47;17.25;;;3.90;;
30505;SDS011;17292;51.600;4.994;2023-04-24T09:09:15;16.95;;;3.65;;
30505;SDS011;17292;51.600;4.994;2023-04-24T09:11:42;23.88;;;4.25;;
30505;SDS011;17292;51.600;4.994;2023-04-24T09:14:09;20.25;;;4.07;;
30505;SDS011;17292;51.600;4.994;2023-04-24T09:16:36;23.85;;;4.60;;
30505;SDS011;17292;51.600;4.994;2023-04-24T09:19:02;23.23;;;4.30;;
30505;SDS011;17292;51.600;4.994;2023-04-24T09:21:34;32.92;;;5.03;;
30505;SDS011;17292;51.600;4.994;2023-04-24T09:24:04;31.52;;;5.35;;
30505;SDS011;17292;51.600;4.994;2023-04-24T09:26:30;22.65;;;4.22;;
30505;SDS011;17292;51.600;4.994;2023-04-24T09:28:57;20.98;;;4.05;;
30505;SDS011;17292;51.600;4.994;2023-04-24T09:31:24;18.02;;;4.78;;
30505;SDS011;17292;51.600;4.994;2023-04-24T09:33:57;18.40;;;4.18;;
30505;SDS011;17292;51.600;4.994;2023-04-24T09:36:32;20.08;;;4.10;;
30505;SDS011;17292;51.600;4.994;2023-04-24T09:38:59;21.98;;;4.80;;
30505;SDS011;17292;51.600;4.994;2023-04-24T09:41:26;22.02;;;4.43;;
30505;SDS011;17292;51.600;4.994;2023-04-24T09:43:55;15.65;;;3.88;;
30505;SDS011;17292;51.600;4.994;2023-04-24T09:46:28;21.45;;;4.03;;
30505;SDS011;17292;51.600;4.994;2023-04-24T09:48:55;19.27;;;4.63;;
30505;SDS011;17292;51.600;4.994;2023-04-24T09:51:34;19.45;;;4.10;;
30505;SDS011;17292;51.600;4.994;2023-04-24T09:54:04;26.55;;;4.22;;
30505;SDS011;17292;51.600;4.994;2023-04-24T09:56:33;18.42;;;4.35;;
30505;SDS011;17292;51.600;4.994;2023-04-24T09:59:06;21.65;;;4.55;;
30505;SDS011;17292;51.600;4.994;2023-04-24T10:01:33;23.85;;;4.63;;
30505;SDS011;17292;51.600;4.994;2023-04-24T10:03:59;20.10;;;4.18;;
30505;SDS011;17292;51.600;4.994;2023-04-24T10:06:34;13.52;;;4.10;;
30505;SDS011;17292;51.600;4.994;2023-04-24T10:09:01;18.73;;;4.32;;
30505;SDS011;17292;51.600;4.994;2023-04-24T10:11:28;27.88;;;4.40;;
30505;SDS011;17292;51.600;4.994;2023-04-24T10:13:55;17.38;;;3.90;;
30505;SDS011;17292;51.600;4.994;2023-04-24T10:16:22;15.00;;;3.72;;
30505;SDS011;17292;51.600;4.994;2023-04-24T10:18:48;19.67;;;4.18;;
30505;SDS011;17292;51.600;4.994;2023-04-24T10:21:16;14.93;;;4.43;;
30505;SDS011;17292;51.600;4.994;2023-04-24T10:23:42;14.88;;;3.78;;
30505;SDS011;17292;51.600;4.994;2023-04-24T10:26:10;17.83;;;3.83;;
30505;SDS011;17292;51.600;4.994;2023-04-24T10:28:43;28.90;;;4.60;;
30505;SDS011;17292;51.600;4.994;2023-04-24T10:31:10;27.05;;;3.92;;
30505;SDS011;17292;51.600;4.994;2023-04-24T10:33:37;22.65;;;4.45;;
30505;SDS011;17292;51.600;4.994;2023-04-24T10:36:06;24.15;;;5.22;;
30505;SDS011;17292;51.600;4.994;2023-04-24T10:38:33;33.97;;;4.30;;
30505;SDS011;17292;51.600;4.994;2023-04-24T10:41:09;32.67;;;5.13;;
30505;SDS011;17292;51.600;4.994;2023-04-24T10:43:41;23.30;;;4.40;;
30505;SDS011;17292;51.600;4.994;2023-04-24T10:46:07;20.98;;;4.22;;
30505;SDS011;17292;51.600;4.994;2023-04-24T10:48:35;29.63;;;5.00;;
30505;SDS011;17292;51.600;4.994;2023-04-24T10:51:01;25.42;;;4.57;;
30505;SDS011;17292;51.600;4.994;2023-04-24T10:53:29;23.20;;;4.47;;
30505;SDS011;17292;51.600;4.994;2023-04-24T10:56:04;30.63;;;5.15;;
30505;SDS011;17292;51.600;4.994;2023-04-24T10:58:49;41.08;;;5.32;;
30505;SDS011;17292;51.600;4.994;2023-04-24T11:01:23;22.58;;;4.38;;
30505;SDS011;17292;51.600;4.994;2023-04-24T11:03:54;16.23;;;4.45;;
30505;SDS011;17292;51.600;4.994;2023-04-24T11:06:28;20.95;;;4.45;;
30505;SDS011;17292;51.600;4.994;2023-04-24T11:08:57;23.55;;;4.65;;
30505;SDS011;17292;51.600;4.994;2023-04-24T11:11:24;19.77;;;3.97;;
30505;SDS011;17292;51.600;4.994;2023-04-24T11:16:21;13.68;;;3.90;;
30505;SDS011;17292;51.600;4.994;2023-04-24T11:18:50;18.20;;;5.03;;
30505;SDS011;17292;51.600;4.994;2023-04-24T11:21:19;26.55;;;4.63;;
30505;SDS011;17292;51.600;4.994;2023-04-24T11:23:46;29.25;;;4.63;;
30505;SDS011;17292;51.600;4.994;2023-04-24T11:26:14;17.52;;;4.30;;
30505;SDS011;17292;51.600;4.994;2023-04-24T11:28:49;21.85;;;3.70;;
30505;SDS011;17292;51.600;4.994;2023-04-24T11:31:34;18.35;;;4.18;;
30505;SDS011;17292;51.600;4.994;2023-04-24T11:34:07;23.95;;;4.95;;
30505;SDS011;17292;51.600;4.994;2023-04-24T11:36:34;22.63;;;4.82;;
30505;SDS011;17292;51.600;4.994;2023-04-24T11:39:00;24.10;;;4.63;;
30505;SDS011;17292;51.600;4.994;2023-04-24T11:41:27;18.25;;;4.32;;
30505;SDS011;17292;51.600;4.994;2023-04-24T11:43:54;22.13;;;4.90;;
30505;SDS011;17292;51.600;4.994;2023-04-24T11:46:21;29.50;;;4.93;;
30505;SDS011;17292;51.600;4.994;2023-04-24T11:48:48;25.85;;;4.57;;
30505;SDS011;17292;51.600;4.994;2023-04-24T11:51:14;30.08;;;4.85;;
30505;SDS011;17292;51.600;4.994;2023-04-24T11:53:40;30.75;;;5.22;;
30505;SDS011;17292;51.600;4.994;2023-04-24T11:56:08;31.15;;;4.90;;
30505;SDS011;17292;51.600;4.994;2023-04-24T11:58:38;29.52;;;5.28;;
30505;SDS011;17292;51.600;4.994;2023-04-24T12:01:04;36.78;;;4.93;;
30505;SDS011;17292;51.600;4.994;2023-04-24T12:03:31;29.50;;;5.90;;
30505;SDS011;17292;51.600;4.994;2023-04-24T12:06:06;35.30;;;5.40;;
30505;SDS011;17292;51.600;4.994;2023-04-24T12:08:33;26.50;;;4.75;;
30505;SDS011;17292;51.600;4.994;2023-04-24T12:11:03;32.47;;;5.40;;
30505;SDS011;17292;51.600;4.994;2023-04-24T12:15:58;23.33;;;4.88;;
30505;SDS011;17292;51.600;4.994;2023-04-24T12:18:24;27.33;;;4.20;;
30505;SDS011;17292;51.600;4.994;2023-04-24T12:20:50;28.55;;;5.20;;
30505;SDS011;17292;51.600;4.994;2023-04-24T12:23:16;15.60;;;4.10;;
30505;SDS011;17292;51.600;4.994;2023-04-24T12:25:44;27.45;;;4.93;;
30505;SDS011;17292;51.600;4.994;2023-04-24T12:28:11;19.23;;;4.60;;
30505;SDS011;17292;51.600;4.994;2023-04-24T12:30:44;28.00;;;4.13;;
30505;SDS011;17292;51.600;4.994;2023-04-24T12:33:17;28.42;;;4.75;;
30505;SDS011;17292;51.600;4.994;2023-04-24T12:35:44;22.25;;;4.35;;
30505;SDS011;17292;51.600;4.994;2023-04-24T12:38:11;24.05;;;4.22;;
30505;SDS011;17292;51.600;4.994;2023-04-24T12:40:38;17.63;;;3.88;;
30505;SDS011;17292;51.600;4.994;2023-04-24T12:43:17;21.85;;;4.32;;
30505;SDS011;17292;51.600;4.994;2023-04-24T12:45:44;20.35;;;4.45;;
30505;SDS011;17292;51.600;4.994;2023-04-24T12:48:10;21.95;;;5.60;;
30505;SDS011;17292;51.600;4.994;2023-04-24T12:50:38;24.13;;;4.43;;
30505;SDS011;17292;51.600;4.994;2023-04-24T12:53:04;23.75;;;4.65;;
30505;SDS011;17292;51.600;4.994;2023-04-24T12:55:30;22.70;;;4.47;;
30505;SDS011;17292;51.600;4.994;2023-04-24T12:57:56;25.92;;;4.30;;
30505;SDS011;17292;51.600;4.994;2023-04-24T13:00:23;34.08;;;5.47;;
30505;SDS011;17292;51.600;4.994;2023-04-24T13:02:49;23.83;;;5.03;;
30505;SDS011;17292;51.600;4.994;2023-04-24T13:05:15;24.23;;;4.88;;
30505;SDS011;17292;51.600;4.994;2023-04-24T13:07:42;27.42;;;5.05;;
30505;SDS011;17292;51.600;4.994;2023-04-24T13:10:08;29.50;;;4.57;;
30505;SDS011;17292;51.600;4.994;2023-04-24T13:12:35;18.92;;;4.78;;
30505;SDS011;17292;51.600;4.994;2023-04-24T13:15:01;27.02;;;5.20;;
30505;SDS011;17292;51.600;4.994;2023-04-24T13:17:28;22.02;;;4.72;;
30505;SDS011;17292;51.600;4.994;2023-04-24T13:19:54;22.88;;;4.45;;
30505;SDS011;17292;51.600;4.994;2023-04-24T13:22:21;24.38;;;4.63;;
30505;SDS011;17292;51.600;4.994;2023-04-24T13:24:47;25.85;;;4.82;;
30505;SDS011;17292;51.600;4.994;2023-04-24T13:27:14;23.38;;;4.75;;
30505;SDS011;17292;51.600;4.994;2023-04-24T13:29:40;23.23;;;4.63;;
30505;SDS011;17292;51.600;4.994;2023-04-24T13:32:07;24.65;;;5.18;;
30505;SDS011;17292;51.600;4.994;2023-04-24T13:34:33;30.60;;;5.07;;
30505;SDS011;17292;51.600;4.994;2023-04-24T13:37:00;21.70;;;4.60;;
30505;SDS011;17292;51.600;4.994;2023-04-24T13:39:27;24.55;;;4.88;;
30505;SDS011;17292;51.600;4.994;2023-04-24T13:41:53;26.92;;;4.63;;
30505;SDS011;17292;51.600;4.994;2023-04-24T13:44:20;20.88;;;4.72;;
30505;SDS011;17292;51.600;4.994;2023-04-24T13:46:48;32.75;;;5.97;;
30505;SDS011;17292;51.600;4.994;2023-04-24T13:49:14;19.10;;;5.22;;
30505;SDS011;17292;51.600;4.994;2023-04-24T13:51:41;21.80;;;5.47;;
30505;SDS011;17292;51.600;4.994;2023-04-24T13:54:08;25.70;;;6.78;;
30505;SDS011;17292;51.600;4.994;2023-04-24T13:56:34;46.50;;;13.95;;
30505;SDS011;17292;51.600;4.994;2023-04-24T13:59:00;49.40;;;14.10;;
30505;SDS011;17292;51.600;4.994;2023-04-24T14:01:27;30.33;;;9.98;;
30505;SDS011;17292;51.600;4.994;2023-04-24T14:03:53;36.90;;;9.60;;
30505;SDS011;17292;51.600;4.994;2023-04-24T14:06:20;42.83;;;12.57;;
30505;SDS011;17292;51.600;4.994;2023-04-24T14:08:47;32.10;;;10.77;;
30505;SDS011;17292;51.600;4.994;2023-04-24T14:11:13;36.22;;;11.48;;
30505;SDS011;17292;51.600;4.994;2023-04-24T14:13:43;60.08;;;22.42;;
30505;SDS011;17292;51.600;4.994;2023-04-24T14:16:09;53.75;;;15.15;;
30505;SDS011;17292;51.600;4.994;2023-04-24T14:18:36;74.00;;;29.88;;
30505;SDS011;17292;51.600;4.994;2023-04-24T14:21:03;94.93;;;37.17;;
30505;SDS011;17292;51.600;4.994;2023-04-24T14:23:29;109.75;;;42.92;;
30505;SDS011;17292;51.600;4.994;2023-04-24T14:25:56;130.15;;;49.60;;
30505;SDS011;17292;51.600;4.994;2023-04-24T14:28:22;119.78;;;45.55;;
30505;SDS011;17292;51.600;4.994;2023-04-24T14:30:48;116.70;;;47.75;;
30505;SDS011;17292;51.600;4.994;2023-04-24T14:33:15;111.05;;;46.15;;
30505;SDS011;17292;51.600;4.994;2023-04-24T14:35:41;90.28;;;35.55;;
30505;SDS011;17292;51.600;4.994;2023-04-24T14:38:07;105.70;;;40.97;;
30505;SDS011;17292;51.600;4.994;2023-04-24T14:40:34;83.25;;;32.90;;
30505;SDS011;17292;51.600;4.994;2023-04-24T14:43:00;89.15;;;36.42;;